sensor_id;sensor_type;location;lat;lon;timestamp;P1;durP1;ratioP1;P2;durP2;ratioP2
26977;SDS011;56314;48.088;11.642;2023-03-05T00:01:37;51.60;;;26.90;;
26977;SDS011;56314;48.088;11.642;2023-03-05T00:04:03;55.30;;;26.10;;
26977;SDS011;56314;48.088;11.642;2023-03-05T00:06:31;50.78;;;25.83;;
26977;SDS011;56314;48.088;11.642;2023-03-05T00:08:57;48.72;;;25.45;;
26977;SDS011;56314;48.088;11.642;2023-03-05T00:11:23;53.17;;;25.45;;
26977;SDS011;56314;48.088;11.642;2023-03-05T00:13:53;48.50;;;25.25;;
26977;SDS011;56314;48.088;11.642;2023-03-05T00:16:19;51.55;;;24.83;;
26977;SDS011;56314;48.088;11.642;2023-03-05T00:18:46;45.72;;;24.58;;
26977;SDS011;56314;48.088;11.642;2023-03-05T00:23:48;51.20;;;24.52;;
26977;SDS011;56314;48.088;11.642;2023-03-05T00:26:20;50.40;;;24.42;;
26977;SDS011;56314;48.088;11.642;2023-03-05T00:28:47;47.90;;;24.77;;
26977;SDS011;56314;48.088;11.642;2023-03-05T00:31:24;45.65;;;23.80;;
26977;SDS011;56314;48.088;11.642;2023-03-05T00:33:54;49.58;;;24.27;;
26977;SDS011;56314;48.088;11.642;2023-03-05T00:36:22;45.00;;;24.02;;
26977;SDS011;56314;48.088;11.642;2023-03-05T00:38:49;41.92;;;23.10;;
26977;SDS011;56314;48.088;11.642;2023-03-05T00:41:14;45.85;;;24.52;;
26977;SDS011;56314;48.088;11.642;2023-03-05T00:43:39;50.50;;;26.67;;
26977;SDS011;56314;48.088;11.642;2023-03-05T00:46:05;52.70;;;25.20;;
26977;SDS011;56314;48.088;11.642;2023-03-05T00:48:30;54.75;;;26.52;;
26977;SDS011;56314;48.088;11.642;2023-03-05T00:50:55;47.20;;;24.67;;
26977;SDS011;56314;48.088;11.642;2023-03-05T00:53:21;52.00;;;25.75;;
26977;SDS011;56314;48.088;11.642;2023-03-05T00:55:47;47.30;;;24.77;;
26977;SDS011;56314;48.088;11.642;2023-03-05T00:58:12;48.67;;;24.98;;
26977;SDS011;56314;48.088;11.642;2023-03-05T01:00:38;52.10;;;25.38;;
26977;SDS011;56314;48.088;11.642;2023-03-05T01:03:03;52.25;;;25.10;;
26977;SDS011;56314;48.088;11.642;2023-03-05T01:05:29;45.45;;;24.70;;
26977;SDS011;56314;48.088;11.642;2023-03-05T01:07:54;53.40;;;23.70;;
26977;SDS011;56314;48.088;11.642;2023-03-05T01:10:20;49.17;;;25.52;;
26977;SDS011;56314;48.088;11.642;2023-03-05T01:12:47;50.33;;;26.90;;
26977;SDS011;56314;48.088;11.642;2023-03-05T01:15:13;53.17;;;25.98;;
26977;SDS011;56314;48.088;11.642;2023-03-05T01:17:39;52.45;;;24.85;;
26977;SDS011;56314;48.088;11.642;2023-03-05T01:20:04;45.63;;;24.85;;
26977;SDS011;56314;48.088;11.642;2023-03-05T01:22:31;50.70;;;25.42;;
26977;SDS011;56314;48.088;11.642;2023-03-05T01:24:56;49.90;;;25.13;;
26977;SDS011;56314;48.088;11.642;2023-03-05T01:27:22;53.75;;;25.85;;
26977;SDS011;56314;48.088;11.642;2023-03-05T01:29:47;49.72;;;24.63;;
26977;SDS011;56314;48.088;11.642;2023-03-05T01:32:12;52.70;;;25.33;;
26977;SDS011;56314;48.088;11.642;2023-03-05T01:34:38;52.92;;;26.42;;
26977;SDS011;56314;48.088;11.642;2023-03-05T01:37:06;52.22;;;25.70;;
26977;SDS011;56314;48.088;11.642;2023-03-05T01:39:31;53.60;;;26.17;;
26977;SDS011;56314;48.088;11.642;2023-03-05T01:41:56;55.15;;;26.13;;
26977;SDS011;56314;48.088;11.642;2023-03-05T01:44:23;56.67;;;26.77;;
26977;SDS011;56314;48.088;11.642;2023-03-05T01:46:50;48.17;;;25.13;;
26977;SDS011;56314;48.088;11.642;2023-03-05T01:54:45;50.58;;;25.15;;
26977;SDS011;56314;48.088;11.642;2023-03-05T01:57:32;49.25;;;25.00;;
26977;SDS011;56314;48.088;11.642;2023-03-05T02:00:05;48.10;;;23.52;;
26977;SDS011;56314;48.088;11.642;2023-03-05T02:02:33;50.72;;;25.70;;
26977;SDS011;56314;48.088;11.642;2023-03-05T02:05:03;51.75;;;25.60;;
26977;SDS011;56314;48.088;11.642;2023-03-05T02:07:32;54.17;;;25.45;;
26977;SDS011;56314;48.088;11.642;2023-03-05T02:10:01;53.65;;;26.98;;
26977;SDS011;56314;48.088;11.642;2023-03-05T02:12:38;53.33;;;25.98;;
26977;SDS011;56314;48.088;11.642;2023-03-05T02:15:04;54.08;;;25.55;;
26977;SDS011;56314;48.088;11.642;2023-03-05T02:17:30;52.83;;;24.85;;
26977;SDS011;56314;48.088;11.642;2023-03-05T02:20:01;54.75;;;27.50;;
26977;SDS011;56314;48.088;11.642;2023-03-05T02:22:32;49.42;;;25.95;;
26977;SDS011;56314;48.088;11.642;2023-03-05T02:24:57;52.90;;;25.55;;
26977;SDS011;56314;48.088;11.642;2023-03-05T02:27:24;51.53;;;25.95;;
26977;SDS011;56314;48.088;11.642;2023-03-05T02:29:59;57.72;;;28.02;;
26977;SDS011;56314;48.088;11.642;2023-03-05T02:32:25;55.30;;;26.52;;
26977;SDS011;56314;48.088;11.642;2023-03-05T02:34:51;56.28;;;26.42;;
26977;SDS011;56314;48.088;11.642;2023-03-05T02:37:16;56.20;;;27.40;;
26977;SDS011;56314;48.088;11.642;2023-03-05T02:39:41;52.65;;;25.38;;
26977;SDS011;56314;48.088;11.642;2023-03-05T02:42:07;56.72;;;27.13;;
26977;SDS011;56314;48.088;11.642;2023-03-05T02:44:32;55.40;;;25.13;;
26977;SDS011;56314;48.088;11.642;2023-03-05T02:46:58;55.05;;;26.88;;
26977;SDS011;56314;48.088;11.642;2023-03-05T02:49:23;55.20;;;26.50;;
26977;SDS011;56314;48.088;11.642;2023-03-05T02:51:48;48.53;;;26.20;;
26977;SDS011;56314;48.088;11.642;2023-03-05T02:54:14;57.90;;;26.75;;
26977;SDS011;56314;48.088;11.642;2023-03-05T02:56:39;57.28;;;26.42;;
26977;SDS011;56314;48.088;11.642;2023-03-05T02:59:04;56.05;;;25.92;;
26977;SDS011;56314;48.088;11.642;2023-03-05T03:01:30;53.40;;;25.92;;
26977;SDS011;56314;48.088;11.642;2023-03-05T03:03:55;52.40;;;25.92;;
26977;SDS011;56314;48.088;11.642;2023-03-05T03:06:21;58.97;;;27.90;;
26977;SDS011;56314;48.088;11.642;2023-03-05T03:08:46;53.42;;;25.98;;
26977;SDS011;56314;48.088;11.642;2023-03-05T03:11:12;48.75;;;24.63;;
26977;SDS011;56314;48.088;11.642;2023-03-05T03:13:37;53.53;;;27.52;;
26977;SDS011;56314;48.088;11.642;2023-03-05T03:16:04;50.55;;;25.20;;
26977;SDS011;56314;48.088;11.642;2023-03-05T03:18:31;53.92;;;28.05;;
26977;SDS011;56314;48.088;11.642;2023-03-05T03:20:57;50.70;;;26.17;;
26977;SDS011;56314;48.088;11.642;2023-03-05T03:23:22;54.58;;;25.67;;
26977;SDS011;56314;48.088;11.642;2023-03-05T03:25:48;59.95;;;26.33;;
26977;SDS011;56314;48.088;11.642;2023-03-05T03:28:13;55.67;;;26.98;;
26977;SDS011;56314;48.088;11.642;2023-03-05T03:30:38;55.17;;;27.80;;
26977;SDS011;56314;48.088;11.642;2023-03-05T03:33:04;57.50;;;28.63;;
26977;SDS011;56314;48.088;11.642;2023-03-05T03:35:29;56.58;;;27.00;;
26977;SDS011;56314;48.088;11.642;2023-03-05T03:37:54;64.85;;;26.98;;
26977;SDS011;56314;48.088;11.642;2023-03-05T03:40:20;59.33;;;26.73;;
26977;SDS011;56314;48.088;11.642;2023-03-05T03:42:45;61.67;;;28.10;;
26977;SDS011;56314;48.088;11.642;2023-03-05T03:45:11;62.13;;;28.40;;
26977;SDS011;56314;48.088;11.642;2023-03-05T03:47:37;61.00;;;27.48;;
26977;SDS011;56314;48.088;11.642;2023-03-05T03:50:02;65.13;;;28.70;;
26977;SDS011;56314;48.088;11.642;2023-03-05T03:52:28;70.07;;;29.95;;
26977;SDS011;56314;48.088;11.642;2023-03-05T03:54:54;62.22;;;29.20;;
26977;SDS011;56314;48.088;11.642;2023-03-05T03:57:25;66.28;;;28.95;;
26977;SDS011;56314;48.088;11.642;2023-03-05T03:59:50;61.92;;;28.35;;
26977;SDS011;56314;48.088;11.642;2023-03-05T04:02:16;63.10;;;28.30;;
26977;SDS011;56314;48.088;11.642;2023-03-05T04:04:42;63.72;;;30.52;;
26977;SDS011;56314;48.088;11.642;2023-03-05T04:07:07;65.15;;;29.77;;
26977;SDS011;56314;48.088;11.642;2023-03-05T04:09:33;62.55;;;27.35;;
26977;SDS011;56314;48.088;11.642;2023-03-05T04:11:58;67.88;;;28.85;;
26977;SDS011;56314;48.088;11.642;2023-03-05T04:14:23;64.13;;;28.80;;
26977;SDS011;56314;48.088;11.642;2023-03-05T04:16:50;62.55;;;28.35;;
26977;SDS011;56314;48.088;11.642;2023-03-05T04:19:16;68.80;;;30.25;;
26977;SDS011;56314;48.088;11.642;2023-03-05T04:21:41;64.22;;;26.42;;
26977;SDS011;56314;48.088;11.642;2023-03-05T04:24:06;61.88;;;27.80;;
26977;SDS011;56314;48.088;11.642;2023-03-05T04:26:32;66.40;;;28.48;;
26977;SDS011;56314;48.088;11.642;2023-03-05T04:28:58;68.63;;;28.65;;
26977;SDS011;56314;48.088;11.642;2023-03-05T04:31:23;65.28;;;27.92;;
26977;SDS011;56314;48.088;11.642;2023-03-05T04:33:48;60.75;;;28.35;;
26977;SDS011;56314;48.088;11.642;2023-03-05T04:36:14;60.60;;;27.38;;
26977;SDS011;56314;48.088;11.642;2023-03-05T04:38:39;67.05;;;28.67;;
26977;SDS011;56314;48.088;11.642;2023-03-05T04:41:05;62.00;;;28.60;;
26977;SDS011;56314;48.088;11.642;2023-03-05T04:43:30;62.80;;;28.50;;
26977;SDS011;56314;48.088;11.642;2023-03-05T04:45:57;62.70;;;27.63;;
26977;SDS011;56314;48.088;11.642;2023-03-05T04:48:22;70.20;;;28.55;;
26977;SDS011;56314;48.088;11.642;2023-03-05T04:50:48;65.22;;;28.92;;
26977;SDS011;56314;48.088;11.642;2023-03-05T04:53:13;62.30;;;27.92;;
26977;SDS011;56314;48.088;11.642;2023-03-05T04:55:38;64.72;;;27.33;;
26977;SDS011;56314;48.088;11.642;2023-03-05T04:58:04;60.10;;;28.10;;
26977;SDS011;56314;48.088;11.642;2023-03-05T05:00:29;61.63;;;27.75;;
26977;SDS011;56314;48.088;11.642;2023-03-05T05:02:55;56.95;;;26.88;;
26977;SDS011;56314;48.088;11.642;2023-03-05T05:05:22;62.65;;;27.52;;
26977;SDS011;56314;48.088;11.642;2023-03-05T05:07:54;57.17;;;26.33;;
26977;SDS011;56314;48.088;11.642;2023-03-05T05:10:20;59.20;;;28.08;;
26977;SDS011;56314;48.088;11.642;2023-03-05T05:12:46;62.00;;;28.15;;
26977;SDS011;56314;48.088;11.642;2023-03-05T05:15:11;63.33;;;27.23;;
26977;SDS011;56314;48.088;11.642;2023-03-05T05:17:37;60.67;;;27.05;;
26977;SDS011;56314;48.088;11.642;2023-03-05T05:20:02;68.00;;;29.70;;
26977;SDS011;56314;48.088;11.642;2023-03-05T05:22:32;61.67;;;27.70;;
26977;SDS011;56314;48.088;11.642;2023-03-05T05:24:59;62.63;;;28.08;;
26977;SDS011;56314;48.088;11.642;2023-03-05T05:27:24;64.55;;;29.00;;
26977;SDS011;56314;48.088;11.642;2023-03-05T05:29:49;63.63;;;28.05;;
26977;SDS011;56314;48.088;11.642;2023-03-05T05:32:16;58.78;;;26.52;;
26977;SDS011;56314;48.088;11.642;2023-03-05T05:34:43;66.03;;;27.95;;
26977;SDS011;56314;48.088;11.642;2023-03-05T05:37:08;59.38;;;28.55;;
26977;SDS011;56314;48.088;11.642;2023-03-05T05:39:34;59.03;;;27.35;;
26977;SDS011;56314;48.088;11.642;2023-03-05T05:41:59;52.15;;;25.60;;
26977;SDS011;56314;48.088;11.642;2023-03-05T05:44:25;67.70;;;28.70;;
26977;SDS011;56314;48.088;11.642;2023-03-05T05:46:50;54.92;;;24.55;;
26977;SDS011;56314;48.088;11.642;2023-03-05T05:49:16;61.83;;;28.83;;
26977;SDS011;56314;48.088;11.642;2023-03-05T05:51:41;63.05;;;26.95;;
26977;SDS011;56314;48.088;11.642;2023-03-05T05:54:06;60.55;;;26.40;;
26977;SDS011;56314;48.088;11.642;2023-03-05T05:56:32;55.15;;;25.92;;
26977;SDS011;56314;48.088;11.642;2023-03-05T05:58:58;54.75;;;25.60;;
26977;SDS011;56314;48.088;11.642;2023-03-05T06:01:28;54.40;;;24.88;;
26977;SDS011;56314;48.088;11.642;2023-03-05T06:03:55;52.60;;;24.88;;
26977;SDS011;56314;48.088;11.642;2023-03-05T06:06:22;52.47;;;24.60;;
26977;SDS011;56314;48.088;11.642;2023-03-05T06:08:48;51.25;;;23.45;;
26977;SDS011;56314;48.088;11.642;2023-03-05T06:11:14;55.38;;;24.92;;
26977;SDS011;56314;48.088;11.642;2023-03-05T06:13:40;52.42;;;23.65;;
26977;SDS011;56314;48.088;11.642;2023-03-05T06:16:07;56.97;;;24.20;;
26977;SDS011;56314;48.088;11.642;2023-03-05T06:18:35;52.63;;;25.13;;
26977;SDS011;56314;48.088;11.642;2023-03-05T06:21:02;51.08;;;23.88;;
26977;SDS011;56314;48.088;11.642;2023-03-05T06:23:29;49.03;;;23.80;;
26977;SDS011;56314;48.088;11.642;2023-03-05T06:25:57;48.30;;;22.13;;
26977;SDS011;56314;48.088;11.642;2023-03-05T06:28:24;49.50;;;22.70;;
26977;SDS011;56314;48.088;11.642;2023-03-05T06:30:49;56.03;;;24.30;;
26977;SDS011;56314;48.088;11.642;2023-03-05T06:33:15;46.90;;;22.73;;
26977;SDS011;56314;48.088;11.642;2023-03-05T06:35:40;49.63;;;23.27;;
26977;SDS011;56314;48.088;11.642;2023-03-05T06:38:06;47.15;;;22.95;;
26977;SDS011;56314;48.088;11.642;2023-03-05T06:40:32;47.70;;;22.17;;
26977;SDS011;56314;48.088;11.642;2023-03-05T06:42:57;47.55;;;22.13;;
26977;SDS011;56314;48.088;11.642;2023-03-05T06:45:23;46.53;;;22.50;;
26977;SDS011;56314;48.088;11.642;2023-03-05T06:47:48;48.72;;;22.02;;
26977;SDS011;56314;48.088;11.642;2023-03-05T06:50:13;47.30;;;22.02;;
26977;SDS011;56314;48.088;11.642;2023-03-05T06:52:39;41.67;;;21.15;;
26977;SDS011;56314;48.088;11.642;2023-03-05T06:55:05;43.00;;;21.10;;
26977;SDS011;56314;48.088;11.642;2023-03-05T06:57:31;43.75;;;19.60;;
26977;SDS011;56314;48.088;11.642;2023-03-05T06:59:56;37.55;;;19.67;;
26977;SDS011;56314;48.088;11.642;2023-03-05T07:02:22;42.35;;;20.35;;
26977;SDS011;56314;48.088;11.642;2023-03-05T07:04:47;43.17;;;19.25;;
26977;SDS011;56314;48.088;11.642;2023-03-05T07:07:12;39.95;;;18.92;;
26977;SDS011;56314;48.088;11.642;2023-03-05T07:09:38;40.45;;;19.40;;
26977;SDS011;56314;48.088;11.642;2023-03-05T07:12:07;39.40;;;18.67;;
26977;SDS011;56314;48.088;11.642;2023-03-05T07:14:35;42.58;;;20.23;;
26977;SDS011;56314;48.088;11.642;2023-03-05T07:17:01;46.15;;;21.05;;
26977;SDS011;56314;48.088;11.642;2023-03-05T07:19:26;40.67;;;19.63;;
26977;SDS011;56314;48.088;11.642;2023-03-05T07:21:51;43.05;;;19.80;;
26977;SDS011;56314;48.088;11.642;2023-03-05T07:24:17;38.67;;;19.85;;
26977;SDS011;56314;48.088;11.642;2023-03-05T07:26:42;40.83;;;19.45;;
26977;SDS011;56314;48.088;11.642;2023-03-05T07:29:07;44.40;;;19.70;;
26977;SDS011;56314;48.088;11.642;2023-03-05T07:31:33;38.75;;;19.30;;
26977;SDS011;56314;48.088;11.642;2023-03-05T07:33:59;42.92;;;18.77;;
26977;SDS011;56314;48.088;11.642;2023-03-05T07:36:26;39.53;;;20.02;;
26977;SDS011;56314;48.088;11.642;2023-03-05T07:38:52;40.58;;;18.42;;
26977;SDS011;56314;48.088;11.642;2023-03-05T07:41:18;42.83;;;20.95;;
26977;SDS011;56314;48.088;11.642;2023-03-05T07:43:45;43.67;;;20.55;;
26977;SDS011;56314;48.088;11.642;2023-03-05T07:46:13;44.60;;;20.13;;
26977;SDS011;56314;48.088;11.642;2023-03-05T07:48:40;46.83;;;19.83;;
26977;SDS011;56314;48.088;11.642;2023-03-05T07:51:06;41.60;;;20.55;;
26977;SDS011;56314;48.088;11.642;2023-03-05T07:53:34;43.65;;;20.73;;
26977;SDS011;56314;48.088;11.642;2023-03-05T07:55:59;40.30;;;19.55;;
26977;SDS011;56314;48.088;11.642;2023-03-05T07:58:25;39.13;;;18.92;;
26977;SDS011;56314;48.088;11.642;2023-03-05T08:00:50;46.08;;;21.17;;
26977;SDS011;56314;48.088;11.642;2023-03-05T08:03:15;47.03;;;20.55;;
26977;SDS011;56314;48.088;11.642;2023-03-05T08:05:41;44.90;;;19.70;;
26977;SDS011;56314;48.088;11.642;2023-03-05T08:08:07;45.22;;;19.67;;
26977;SDS011;56314;48.088;11.642;2023-03-05T08:10:33;40.15;;;19.20;;
26977;SDS011;56314;48.088;11.642;2023-03-05T08:12:59;39.60;;;18.85;;
26977;SDS011;56314;48.088;11.642;2023-03-05T08:15:24;41.33;;;20.10;;
26977;SDS011;56314;48.088;11.642;2023-03-05T08:17:49;40.80;;;18.77;;
26977;SDS011;56314;48.088;11.642;2023-03-05T08:20:15;43.47;;;19.70;;
26977;SDS011;56314;48.088;11.642;2023-03-05T08:22:40;45.50;;;19.25;;
26977;SDS011;56314;48.088;11.642;2023-03-05T08:25:06;46.70;;;20.90;;
26977;SDS011;56314;48.088;11.642;2023-03-05T08:27:32;49.50;;;20.55;;
26977;SDS011;56314;48.088;11.642;2023-03-05T08:29:57;43.92;;;20.80;;
26977;SDS011;56314;48.088;11.642;2023-03-05T08:32:26;44.13;;;20.63;;
26977;SDS011;56314;48.088;11.642;2023-03-05T08:34:54;43.42;;;20.17;;
26977;SDS011;56314;48.088;11.642;2023-03-05T08:37:21;43.88;;;18.90;;
26977;SDS011;56314;48.088;11.642;2023-03-05T08:39:47;40.53;;;20.27;;
26977;SDS011;56314;48.088;11.642;2023-03-05T08:42:12;44.58;;;19.52;;
26977;SDS011;56314;48.088;11.642;2023-03-05T08:44:37;38.53;;;18.70;;
26977;SDS011;56314;48.088;11.642;2023-03-05T08:47:03;47.47;;;21.05;;
26977;SDS011;56314;48.088;11.642;2023-03-05T08:49:28;49.40;;;21.00;;
26977;SDS011;56314;48.088;11.642;2023-03-05T08:51:53;45.33;;;19.35;;
26977;SDS011;56314;48.088;11.642;2023-03-05T08:54:19;45.70;;;20.25;;
26977;SDS011;56314;48.088;11.642;2023-03-05T08:56:44;43.53;;;19.73;;
26977;SDS011;56314;48.088;11.642;2023-03-05T08:59:10;48.85;;;22.10;;
26977;SDS011;56314;48.088;11.642;2023-03-05T09:01:35;39.88;;;19.90;;
26977;SDS011;56314;48.088;11.642;2023-03-05T09:04:00;48.83;;;21.13;;
26977;SDS011;56314;48.088;11.642;2023-03-05T09:06:26;46.25;;;20.30;;
26977;SDS011;56314;48.088;11.642;2023-03-05T09:08:52;51.55;;;21.67;;
26977;SDS011;56314;48.088;11.642;2023-03-05T09:11:18;39.42;;;19.77;;
26977;SDS011;56314;48.088;11.642;2023-03-05T09:13:43;49.85;;;22.42;;
26977;SDS011;56314;48.088;11.642;2023-03-05T09:16:13;42.88;;;20.52;;
26977;SDS011;56314;48.088;11.642;2023-03-05T09:18:40;39.60;;;19.75;;
26977;SDS011;56314;48.088;11.642;2023-03-05T09:21:06;41.83;;;19.70;;
26977;SDS011;56314;48.088;11.642;2023-03-05T09:23:36;39.75;;;19.30;;
26977;SDS011;56314;48.088;11.642;2023-03-05T09:26:06;43.35;;;19.52;;
26977;SDS011;56314;48.088;11.642;2023-03-05T09:28:33;41.50;;;21.05;;
26977;SDS011;56314;48.088;11.642;2023-03-05T09:31:05;42.33;;;20.23;;
26977;SDS011;56314;48.088;11.642;2023-03-05T09:33:32;44.70;;;20.40;;
26977;SDS011;56314;48.088;11.642;2023-03-05T09:35:58;38.28;;;19.40;;
26977;SDS011;56314;48.088;11.642;2023-03-05T09:38:24;49.63;;;22.05;;
26977;SDS011;56314;48.088;11.642;2023-03-05T09:41:01;44.00;;;21.38;;
26977;SDS011;56314;48.088;11.642;2023-03-05T09:46:12;37.92;;;20.15;;
26977;SDS011;56314;48.088;11.642;2023-03-05T09:49:09;42.65;;;20.25;;
26977;SDS011;56314;48.088;11.642;2023-03-05T09:52:05;44.40;;;20.42;;
26977;SDS011;56314;48.088;11.642;2023-03-05T09:54:38;40.67;;;20.63;;
26977;SDS011;56314;48.088;11.642;2023-03-05T09:57:14;44.15;;;19.75;;
26977;SDS011;56314;48.088;11.642;2023-03-05T09:59:51;41.22;;;19.13;;
26977;SDS011;56314;48.088;11.642;2023-03-05T10:02:22;44.67;;;20.02;;
26977;SDS011;56314;48.088;11.642;2023-03-05T10:04:54;41.53;;;20.00;;
26977;SDS011;56314;48.088;11.642;2023-03-05T10:10:02;44.00;;;21.25;;
26977;SDS011;56314;48.088;11.642;2023-03-05T10:15:15;35.30;;;18.38;;
26977;SDS011;56314;48.088;11.642;2023-03-05T10:20:57;42.20;;;19.58;;
26977;SDS011;56314;48.088;11.642;2023-03-05T10:34:31;39.72;;;20.00;;
26977;SDS011;56314;48.088;11.642;2023-03-05T10:42:26;40.83;;;20.88;;
26977;SDS011;56314;48.088;11.642;2023-03-05T10:44:59;44.25;;;19.63;;
26977;SDS011;56314;48.088;11.642;2023-03-05T10:47:31;40.55;;;20.50;;
26977;SDS011;56314;48.088;11.642;2023-03-05T10:50:18;36.65;;;18.83;;
26977;SDS011;56314;48.088;11.642;2023-03-05T10:52:49;42.63;;;19.60;;
26977;SDS011;56314;48.088;11.642;2023-03-05T10:55:37;43.88;;;19.10;;
26977;SDS011;56314;48.088;11.642;2023-03-05T10:58:13;37.58;;;19.65;;
26977;SDS011;56314;48.088;11.642;2023-03-05T11:00:40;36.53;;;19.00;;
26977;SDS011;56314;48.088;11.642;2023-03-05T11:03:21;43.97;;;20.73;;
26977;SDS011;56314;48.088;11.642;2023-03-05T11:05:47;38.47;;;18.73;;
26977;SDS011;56314;48.088;11.642;2023-03-05T11:13:33;41.42;;;19.30;;
26977;SDS011;56314;48.088;11.642;2023-03-05T11:16:02;40.97;;;20.25;;
26977;SDS011;56314;48.088;11.642;2023-03-05T11:18:30;38.33;;;19.02;;
26977;SDS011;56314;48.088;11.642;2023-03-05T11:23:36;40.70;;;19.63;;
26977;SDS011;56314;48.088;11.642;2023-03-05T11:28:28;36.67;;;18.58;;
26977;SDS011;56314;48.088;11.642;2023-03-05T11:30:56;38.70;;;18.38;;
26977;SDS011;56314;48.088;11.642;2023-03-05T11:33:21;35.70;;;17.77;;
26977;SDS011;56314;48.088;11.642;2023-03-05T11:35:48;37.88;;;18.15;;
26977;SDS011;56314;48.088;11.642;2023-03-05T11:40:42;33.75;;;16.38;;
26977;SDS011;56314;48.088;11.642;2023-03-05T11:43:08;35.70;;;16.88;;
26977;SDS011;56314;48.088;11.642;2023-03-05T11:45:39;39.85;;;18.67;;
26977;SDS011;56314;48.088;11.642;2023-03-05T11:48:05;33.33;;;17.05;;
26977;SDS011;56314;48.088;11.642;2023-03-05T11:50:34;35.72;;;18.48;;
26977;SDS011;56314;48.088;11.642;2023-03-05T11:53:18;31.10;;;16.42;;
26977;SDS011;56314;48.088;11.642;2023-03-05T11:55:48;34.55;;;16.92;;
26977;SDS011;56314;48.088;11.642;2023-03-05T12:01:14;37.95;;;17.23;;
26977;SDS011;56314;48.088;11.642;2023-03-05T12:03:45;36.63;;;18.75;;
26977;SDS011;56314;48.088;11.642;2023-03-05T12:06:16;35.40;;;18.27;;
26977;SDS011;56314;48.088;11.642;2023-03-05T12:08:47;36.25;;;18.85;;
26977;SDS011;56314;48.088;11.642;2023-03-05T12:13:45;39.25;;;18.92;;
26977;SDS011;56314;48.088;11.642;2023-03-05T12:23:57;33.00;;;18.63;;
26977;SDS011;56314;48.088;11.642;2023-03-05T12:35:23;33.17;;;16.70;;
26977;SDS011;56314;48.088;11.642;2023-03-05T12:40:24;27.23;;;13.40;;
26977;SDS011;56314;48.088;11.642;2023-03-05T12:45:27;32.10;;;15.85;;
26977;SDS011;56314;48.088;11.642;2023-03-05T12:52:55;32.00;;;16.13;;
26977;SDS011;56314;48.088;11.642;2023-03-05T12:55:23;31.83;;;15.65;;
26977;SDS011;56314;48.088;11.642;2023-03-05T12:57:55;26.83;;;14.25;;
26977;SDS011;56314;48.088;11.642;2023-03-05T13:00:28;30.20;;;14.43;;
26977;SDS011;56314;48.088;11.642;2023-03-05T13:02:59;24.67;;;13.25;;
26977;SDS011;56314;48.088;11.642;2023-03-05T13:05:31;23.38;;;13.52;;
26977;SDS011;56314;48.088;11.642;2023-03-05T13:10:50;26.65;;;12.80;;
26977;SDS011;56314;48.088;11.642;2023-03-05T13:13:21;23.92;;;12.55;;
26977;SDS011;56314;48.088;11.642;2023-03-05T13:15:49;26.42;;;13.20;;
26977;SDS011;56314;48.088;11.642;2023-03-05T13:18:20;24.42;;;13.07;;
26977;SDS011;56314;48.088;11.642;2023-03-05T13:21:03;25.52;;;12.40;;
26977;SDS011;56314;48.088;11.642;2023-03-05T13:23:30;24.17;;;11.70;;
26977;SDS011;56314;48.088;11.642;2023-03-05T13:25:59;22.55;;;11.82;;
26977;SDS011;56314;48.088;11.642;2023-03-05T13:28:34;23.02;;;12.13;;
26977;SDS011;56314;48.088;11.642;2023-03-05T13:31:03;23.23;;;12.70;;
26977;SDS011;56314;48.088;11.642;2023-03-05T13:33:37;24.80;;;12.25;;
26977;SDS011;56314;48.088;11.642;2023-03-05T13:36:03;23.10;;;11.35;;
26977;SDS011;56314;48.088;11.642;2023-03-05T13:38:33;23.33;;;11.43;;
26977;SDS011;56314;48.088;11.642;2023-03-05T13:43:54;21.33;;;11.82;;
26977;SDS011;56314;48.088;11.642;2023-03-05T13:46:39;24.75;;;11.68;;
26977;SDS011;56314;48.088;11.642;2023-03-05T13:49:16;24.83;;;12.40;;
26977;SDS011;56314;48.088;11.642;2023-03-05T13:51:44;23.33;;;11.55;;
26977;SDS011;56314;48.088;11.642;2023-03-05T13:54:17;27.27;;;11.18;;
26977;SDS011;56314;48.088;11.642;2023-03-05T13:59:24;19.83;;;10.18;;
26977;SDS011;56314;48.088;11.642;2023-03-05T14:01:52;22.02;;;11.43;;
26977;SDS011;56314;48.088;11.642;2023-03-05T14:04:28;23.58;;;11.93;;
26977;SDS011;56314;48.088;11.642;2023-03-05T14:07:04;23.02;;;11.75;;
26977;SDS011;56314;48.088;11.642;2023-03-05T14:12:03;23.52;;;11.60;;
26977;SDS011;56314;48.088;11.642;2023-03-05T14:14:51;18.95;;;10.63;;
26977;SDS011;56314;48.088;11.642;2023-03-05T14:22:30;25.98;;;11.55;;
26977;SDS011;56314;48.088;11.642;2023-03-05T14:24:58;20.42;;;11.35;;
26977;SDS011;56314;48.088;11.642;2023-03-05T14:27:23;28.10;;;12.60;;
26977;SDS011;56314;48.088;11.642;2023-03-05T14:29:49;23.88;;;12.07;;
26977;SDS011;56314;48.088;11.642;2023-03-05T14:32:26;21.52;;;12.40;;
26977;SDS011;56314;48.088;11.642;2023-03-05T14:34:57;22.75;;;11.65;;
26977;SDS011;56314;48.088;11.642;2023-03-05T14:37:33;23.98;;;13.65;;
26977;SDS011;56314;48.088;11.642;2023-03-05T14:42:51;25.05;;;12.80;;
26977;SDS011;56314;48.088;11.642;2023-03-05T14:45:28;29.13;;;13.52;;
26977;SDS011;56314;48.088;11.642;2023-03-05T14:47:56;24.75;;;12.75;;
26977;SDS011;56314;48.088;11.642;2023-03-05T14:50:24;24.98;;;12.57;;
26977;SDS011;56314;48.088;11.642;2023-03-05T14:52:53;22.58;;;12.35;;
26977;SDS011;56314;48.088;11.642;2023-03-05T14:55:22;26.25;;;13.38;;
26977;SDS011;56314;48.088;11.642;2023-03-05T14:57:50;25.40;;;12.88;;
26977;SDS011;56314;48.088;11.642;2023-03-05T15:00:23;26.83;;;12.73;;
26977;SDS011;56314;48.088;11.642;2023-03-05T15:02:49;30.33;;;14.00;;
26977;SDS011;56314;48.088;11.642;2023-03-05T15:05:15;27.58;;;13.52;;
26977;SDS011;56314;48.088;11.642;2023-03-05T15:07:42;29.23;;;14.23;;
26977;SDS011;56314;48.088;11.642;2023-03-05T15:10:08;27.27;;;13.35;;
26977;SDS011;56314;48.088;11.642;2023-03-05T15:12:35;30.98;;;14.70;;
26977;SDS011;56314;48.088;11.642;2023-03-05T15:15:01;28.42;;;13.07;;
26977;SDS011;56314;48.088;11.642;2023-03-05T15:20:06;29.23;;;13.68;;
26977;SDS011;56314;48.088;11.642;2023-03-05T15:22:38;30.25;;;14.50;;
26977;SDS011;56314;48.088;11.642;2023-03-05T15:25:03;26.67;;;14.00;;
26977;SDS011;56314;48.088;11.642;2023-03-05T15:27:29;26.65;;;14.40;;
26977;SDS011;56314;48.088;11.642;2023-03-05T15:29:54;31.25;;;14.00;;
26977;SDS011;56314;48.088;11.642;2023-03-05T15:32:19;32.00;;;14.90;;
26977;SDS011;56314;48.088;11.642;2023-03-05T15:34:45;28.75;;;13.50;;
26977;SDS011;56314;48.088;11.642;2023-03-05T15:37:10;28.35;;;14.65;;
26977;SDS011;56314;48.088;11.642;2023-03-05T15:39:36;28.92;;;14.85;;
26977;SDS011;56314;48.088;11.642;2023-03-05T15:42:01;29.88;;;14.48;;
26977;SDS011;56314;48.088;11.642;2023-03-05T15:44:26;39.88;;;16.23;;
26977;SDS011;56314;48.088;11.642;2023-03-05T15:46:52;30.23;;;14.57;;
26977;SDS011;56314;48.088;11.642;2023-03-05T15:49:18;33.38;;;15.32;;
26977;SDS011;56314;48.088;11.642;2023-03-05T15:51:45;32.15;;;15.32;;
26977;SDS011;56314;48.088;11.642;2023-03-05T15:54:10;30.25;;;14.82;;